createdAt,value
2018-03-01T00:00:05.219Z,18.95
2018-03-01T00:02:36.860Z,20.02
2018-03-01T00:05:08.103Z,16.23
2018-03-01T00:07:39.463Z,18.35
2018-03-01T00:10:10.717Z,14.32
2018-03-01T00:12:42.241Z,16.73
2018-03-01T00:15:13.619Z,16.62
2018-03-01T00:17:44.861Z,16.80
2018-03-01T00:20:16.127Z,15.52
2018-03-01T00:22:47.349Z,17.62
2018-03-01T00:25:18.877Z,17.27
2018-03-01T00:27:50.094Z,17.30
2018-03-01T00:30:21.361Z,18.40
2018-03-01T00:32:52.612Z,18.42
2018-03-01T00:35:23.851Z,21.45
2018-03-01T00:37:55.196Z,14.02
2018-03-01T00:40:26.411Z,16.95
2018-03-01T00:42:57.705Z,16.67
2018-03-01T00:45:29.138Z,15.02
2018-03-01T00:48:00.523Z,17.62
2018-03-01T00:50:32.493Z,17.80
2018-03-01T00:53:03.734Z,19.62
2018-03-01T00:55:35.733Z,15.32
2018-03-01T00:58:07.094Z,19.23
2018-03-01T01:00:38.306Z,19.05
2018-03-01T01:03:09.781Z,16.10
2018-03-01T01:05:40.981Z,17.27
2018-03-01T01:08:12.987Z,15.32
2018-03-01T01:10:44.190Z,15.40
2018-03-01T01:13:15.431Z,17.05
2018-03-01T01:15:46.760Z,22.30
2018-03-01T01:18:18.009Z,19.25
2018-03-01T01:20:49.216Z,15.55
2018-03-01T01:23:20.511Z,19.33
2018-03-01T01:25:51.733Z,12.07
2018-03-01T01:28:22.995Z,13.27
2018-03-01T01:30:54.216Z,15.43
2018-03-01T01:33:25.490Z,15.65
2018-03-01T01:35:56.834Z,18.85
2018-03-01T01:38:28.166Z,13.35
2018-03-01T01:41:00.200Z,15.35
2018-03-01T01:43:31.470Z,16.15
2018-03-01T01:46:02.695Z,13.45
2018-03-01T01:48:33.940Z,16.62
2018-03-01T01:51:05.188Z,18.17
2018-03-01T01:53:36.468Z,17.73
2018-03-01T01:56:07.776Z,14.38
2018-03-01T01:58:38.999Z,16.85
2018-03-01T02:01:10.187Z,14.95
2018-03-01T02:03:41.700Z,19.15
2018-03-01T02:06:12.906Z,17.50
2018-03-01T02:08:45.234Z,16.92
2018-03-01T02:11:16.458Z,19.00
2018-03-01T02:13:47.731Z,21.77
2018-03-01T02:16:19.032Z,16.23
2018-03-01T02:18:50.282Z,14.43
2018-03-01T02:21:21.520Z,20.23
2018-03-01T02:23:53.100Z,15.27
2018-03-01T02:26:24.311Z,18.77
2018-03-01T02:28:55.706Z,16.30
2018-03-01T02:31:26.928Z,17.92
2018-03-01T02:33:58.433Z,16.52
2018-03-01T02:36:32.421Z,14.07
2018-03-01T02:39:04.424Z,12.15
2018-03-01T02:41:35.620Z,15.45
2018-03-01T02:44:07.250Z,15.60
2018-03-01T02:46:38.456Z,16.52
2018-03-01T02:49:09.719Z,13.38
2018-03-01T02:51:41.302Z,25.00
2018-03-01T02:54:12.536Z,15.45
2018-03-01T02:56:43.903Z,16.90
2018-03-01T02:59:15.113Z,14.50
2018-03-01T03:01:46.370Z,13.48
2018-03-01T03:04:17.594Z,17.65
2018-03-01T03:06:48.879Z,15.52
2018-03-01T03:09:20.107Z,20.02
2018-03-01T03:11:51.304Z,14.25
2018-03-01T03:14:22.562Z,14.27
2018-03-01T03:16:53.817Z,12.95
2018-03-01T03:19:25.349Z,13.77
2018-03-01T03:21:56.556Z,14.63
2018-03-01T03:24:27.842Z,16.67
2018-03-01T03:26:59.044Z,14.35
2018-03-01T03:29:30.306Z,21.20
2018-03-01T03:32:02.319Z,17.00
2018-03-01T03:34:33.559Z,17.62
2018-03-01T03:37:04.815Z,14.38
2018-03-01T03:39:36.065Z,16.23
2018-03-01T03:42:07.288Z,15.98
2018-03-01T03:44:38.531Z,18.62
2018-03-01T03:47:09.817Z,13.18
2018-03-01T03:49:41.077Z,12.80
2018-03-01T03:52:12.280Z,17.27
2018-03-01T03:54:43.560Z,17.20
2018-03-01T03:57:14.871Z,20.12
2018-03-01T03:59:46.150Z,16.58
2018-03-01T04:02:25.000Z,14.05
2018-03-01T04:04:56.224Z,14.25
2018-03-01T04:07:27.481Z,20.73
2018-03-01T04:09:59.448Z,16.40
2018-03-01T04:12:30.690Z,15.77
2018-03-01T04:15:02.832Z,14.80
2018-03-01T04:17:34.132Z,14.13
2018-03-01T04:20:05.465Z,15.18
2018-03-01T04:22:36.676Z,13.55
2018-03-01T04:25:07.901Z,18.65
2018-03-01T04:27:39.128Z,18.70
2018-03-01T04:30:10.382Z,17.95
2018-03-01T04:32:41.612Z,16.77
2018-03-01T04:35:13.633Z,20.17
2018-03-01T04:37:45.649Z,18.17
2018-03-01T04:40:16.894Z,18.58
2018-03-01T04:42:48.099Z,14.98
2018-03-01T04:45:19.285Z,17.85
2018-03-01T04:47:50.512Z,17.62
2018-03-01T04:50:21.704Z,16.08
2018-03-01T04:52:52.972Z,16.08
2018-03-01T04:55:24.149Z,17.08
2018-03-01T04:57:55.674Z,15.02
2018-03-01T05:00:26.857Z,17.60
2018-03-01T05:02:58.087Z,18.17
2018-03-01T05:05:29.291Z,20.45
2018-03-01T05:08:00.493Z,16.90
2018-03-01T05:10:31.711Z,23.02
2018-03-01T05:13:02.918Z,18.67
2018-03-01T05:15:34.599Z,19.17
2018-03-01T05:18:06.036Z,23.67
2018-03-01T05:20:37.249Z,19.17
2018-03-01T05:23:08.632Z,19.35
2018-03-01T05:25:39.807Z,15.82
2018-03-01T05:28:11.001Z,17.95
2018-03-01T05:30:42.187Z,17.70
2018-03-01T05:33:13.371Z,19.23
2018-03-01T05:35:45.320Z,20.70
2018-03-01T05:38:17.625Z,19.58
2018-03-01T05:40:49.537Z,15.15
2018-03-01T05:43:21.008Z,20.42
2018-03-01T05:45:52.951Z,19.85
2018-03-01T05:48:24.170Z,21.15
2018-03-01T05:50:56.432Z,21.12
2018-03-01T05:53:27.630Z,19.50
2018-03-01T05:55:58.891Z,20.35
2018-03-01T05:58:31.673Z,19.77
2018-03-01T06:01:02.943Z,25.02
2018-03-01T06:03:34.527Z,21.80
2018-03-01T06:06:05.881Z,21.85
2018-03-01T06:08:37.099Z,21.10
2018-03-01T06:11:08.282Z,22.50
2018-03-01T06:13:40.275Z,24.40
2018-03-01T06:16:11.700Z,19.25
2018-03-01T06:18:44.792Z,22.35
2018-03-01T06:21:16.009Z,19.83
2018-03-01T06:23:48.756Z,22.42
2018-03-01T06:26:19.955Z,23.58
2018-03-01T06:28:51.198Z,26.37
2018-03-01T06:31:22.429Z,21.77
2018-03-01T06:33:53.930Z,23.52
2018-03-01T06:36:25.160Z,26.30
2018-03-01T06:38:56.595Z,25.55
2018-03-01T06:41:27.798Z,21.52
2018-03-01T06:43:59.297Z,26.48
2018-03-01T06:46:30.496Z,27.35
2018-03-01T06:49:01.833Z,17.62
2018-03-01T06:51:33.079Z,24.65
2018-03-01T06:54:05.068Z,25.02
2018-03-01T06:56:37.012Z,22.35
2018-03-01T06:59:08.316Z,23.33
2018-03-01T07:01:39.495Z,28.25
2018-03-01T07:04:10.718Z,23.10
2018-03-01T07:06:41.952Z,24.23
2018-03-01T07:09:13.184Z,26.12
2018-03-01T07:11:44.419Z,27.37
2018-03-01T07:14:15.666Z,24.37
2018-03-01T07:16:46.903Z,26.58
2018-03-01T07:19:18.241Z,25.65
2018-03-01T07:21:49.818Z,28.30
2018-03-01T07:24:21.042Z,30.05
2018-03-01T07:26:52.385Z,28.90
2018-03-01T07:29:24.321Z,27.27
2018-03-01T07:31:55.569Z,26.15
2018-03-01T07:34:26.878Z,29.27
2018-03-01T07:36:58.168Z,28.08
2018-03-01T07:39:29.495Z,28.80
2018-03-01T07:42:00.752Z,26.15
2018-03-01T07:44:31.935Z,24.92
2018-03-01T07:47:03.236Z,27.23
2018-03-01T07:49:35.187Z,28.38
2018-03-01T07:52:06.426Z,26.62
2018-03-01T07:54:37.616Z,24.20
2018-03-01T07:57:08.912Z,26.75
2018-03-01T07:59:40.907Z,28.62
2018-03-01T08:02:12.946Z,27.75
2018-03-01T08:04:44.244Z,26.25
2018-03-01T08:07:15.488Z,29.35
2018-03-01T08:09:46.936Z,28.35
2018-03-01T08:12:19.026Z,27.13
2018-03-01T08:14:50.991Z,25.35
2018-03-01T08:17:22.228Z,22.52
2018-03-01T08:19:53.526Z,20.98
2018-03-01T08:22:24.771Z,27.90
2018-03-01T08:24:56.743Z,21.60
2018-03-01T08:27:28.861Z,23.52
2018-03-01T08:30:00.504Z,21.65
2018-03-01T08:32:31.703Z,24.83
2018-03-01T08:35:03.716Z,27.48
2018-03-01T08:37:34.956Z,19.85
2018-03-01T08:40:06.323Z,26.08
2018-03-01T08:42:37.584Z,20.88
2018-03-01T08:45:09.596Z,22.25
2018-03-01T08:47:40.865Z,22.92
2018-03-01T08:50:12.992Z,22.42
2018-03-01T08:52:44.224Z,23.20
2018-03-01T08:55:15.473Z,24.87
2018-03-01T08:57:46.758Z,18.30
2018-03-01T09:00:18.112Z,27.83
2018-03-01T09:02:49.409Z,21.77
2018-03-01T09:05:20.643Z,18.17
2018-03-01T09:07:51.946Z,20.83
2018-03-01T09:10:23.206Z,21.27
2018-03-01T09:12:54.730Z,23.15
2018-03-01T09:15:27.634Z,22.67
2018-03-01T09:18:00.234Z,22.62
2018-03-01T09:20:32.073Z,21.52
2018-03-01T09:23:07.709Z,22.73
2018-03-01T09:25:42.325Z,22.60
2018-03-01T09:28:15.143Z,19.90
2018-03-01T09:30:46.742Z,22.62
2018-03-01T09:33:17.932Z,21.25
2018-03-01T09:35:49.973Z,20.23
2018-03-01T09:38:21.334Z,19.25
2018-03-01T09:40:52.739Z,17.75
2018-03-01T09:43:23.949Z,24.83
2018-03-01T09:45:55.194Z,20.98
2018-03-01T09:48:26.430Z,22.23
2018-03-01T09:50:58.592Z,18.25
2018-03-01T09:53:30.069Z,23.62
2018-03-01T09:56:01.331Z,26.37
2018-03-01T09:58:32.692Z,17.67
2018-03-01T10:01:04.019Z,24.35
2018-03-01T10:03:35.463Z,18.70
2018-03-01T10:06:06.666Z,19.15
2018-03-01T10:08:37.914Z,24.80
2018-03-01T10:11:09.916Z,24.15
2018-03-01T10:13:41.219Z,25.05
2018-03-01T10:16:12.448Z,26.42
2018-03-01T10:18:45.530Z,26.85
2018-03-01T10:21:18.650Z,27.77
2018-03-01T10:23:50.611Z,21.92
2018-03-01T10:26:22.854Z,20.48
2018-03-01T10:28:54.941Z,21.00
2018-03-01T10:31:26.877Z,28.33
2018-03-01T10:33:59.079Z,19.55
2018-03-01T10:36:33.597Z,22.75
2018-03-01T10:39:04.961Z,32.67
2018-03-01T10:41:36.290Z,20.95
2018-03-01T10:44:08.280Z,19.50
2018-03-01T10:46:39.566Z,21.60
2018-03-01T10:49:11.104Z,27.25
2018-03-01T10:51:42.338Z,24.52
2018-03-01T10:54:13.618Z,25.17
2018-03-01T10:56:44.968Z,27.23
2018-03-01T10:59:17.060Z,18.05
2018-03-01T11:01:51.941Z,16.67
2018-03-01T11:04:23.284Z,19.98
2018-03-01T11:06:54.541Z,17.15
2018-03-01T11:09:25.830Z,23.00
2018-03-01T11:11:57.049Z,24.20
2018-03-01T11:14:28.768Z,22.58
2018-03-01T11:17:00.326Z,16.10
2018-03-01T11:19:31.664Z,18.65
2018-03-01T11:22:03.240Z,19.20
2018-03-01T11:24:34.461Z,18.20
2018-03-01T11:27:05.731Z,16.62
2018-03-01T11:29:36.948Z,21.85
2018-03-01T11:32:08.317Z,20.83
2018-03-01T11:34:39.522Z,17.65
2018-03-01T11:37:10.768Z,18.52
2018-03-01T11:39:42.020Z,21.52
2018-03-01T11:42:13.253Z,21.80
2018-03-01T11:44:44.522Z,21.20
2018-03-01T11:47:15.772Z,20.12
2018-03-01T11:49:47.318Z,22.25
2018-03-01T11:52:18.565Z,19.80
2018-03-01T11:54:49.772Z,19.80
2018-03-01T11:57:21.093Z,18.65
2018-03-01T11:59:53.418Z,16.65
2018-03-01T12:02:24.892Z,16.45
2018-03-01T12:04:56.187Z,13.98
2018-03-01T12:07:27.397Z,18.48
2018-03-01T12:09:59.394Z,17.40
2018-03-01T12:12:30.678Z,15.32
2018-03-01T12:15:03.421Z,18.45
2018-03-01T12:17:34.669Z,21.17
2018-03-01T12:20:05.899Z,20.17
2018-03-01T12:22:37.288Z,15.65
2018-03-01T12:25:08.475Z,16.70
2018-03-01T12:27:39.748Z,16.25
2018-03-01T12:30:11.028Z,23.73
2018-03-01T12:32:42.268Z,16.27
2018-03-01T12:35:13.488Z,16.40
2018-03-01T12:37:44.861Z,17.30
2018-03-01T12:40:16.075Z,17.75
2018-03-01T12:42:47.398Z,15.57
2018-03-01T12:45:18.640Z,16.20
2018-03-01T12:47:49.911Z,21.15
2018-03-01T12:50:21.135Z,19.52
2018-03-01T12:52:52.376Z,17.70
2018-03-01T12:55:24.374Z,13.98
2018-03-01T12:57:55.761Z,20.12
2018-03-01T13:00:27.061Z,18.27
2018-03-01T13:02:58.627Z,18.33
2018-03-01T13:05:29.810Z,18.15
2018-03-01T13:08:01.623Z,21.17
2018-03-01T13:10:34.790Z,16.50
2018-03-01T13:13:06.619Z,19.83
2018-03-01T13:15:38.640Z,22.90
2018-03-01T13:18:09.944Z,20.65
2018-03-01T13:20:41.161Z,17.95
2018-03-01T13:23:12.771Z,16.42
2018-03-01T13:25:43.971Z,16.02
2018-03-01T13:28:15.945Z,22.50
2018-03-01T13:30:47.177Z,19.85
2018-03-01T13:33:19.380Z,17.45
2018-03-01T13:35:53.494Z,18.92
2018-03-01T13:38:24.735Z,25.77
2018-03-01T13:40:55.951Z,19.05
2018-03-01T13:43:29.296Z,20.52
2018-03-01T13:46:00.583Z,17.48
2018-03-01T13:48:32.643Z,19.17
2018-03-01T13:51:04.653Z,19.40
2018-03-01T13:53:35.864Z,19.98
2018-03-01T13:56:07.168Z,18.40
2018-03-01T13:58:38.376Z,22.20
2018-03-01T14:01:09.643Z,21.25
2018-03-01T14:03:40.930Z,17.25
2018-03-01T14:06:14.821Z,24.20
2018-03-01T14:08:46.084Z,18.35
2018-03-01T14:11:18.160Z,24.02
2018-03-01T14:13:49.468Z,21.02
2018-03-01T14:16:20.648Z,20.37
2018-03-01T14:19:03.437Z,22.83
2018-03-01T14:21:40.900Z,23.67
2018-03-01T14:24:13.951Z,20.20
2018-03-01T14:26:49.228Z,24.58
2018-03-01T14:29:26.848Z,22.80
2018-03-01T14:31:58.088Z,18.50
2018-03-01T14:34:29.358Z,17.90
2018-03-01T14:37:00.615Z,23.20
2018-03-01T14:39:31.828Z,22.20
2018-03-01T14:42:03.150Z,21.50
2018-03-01T14:44:34.359Z,21.35
2018-03-01T14:47:05.609Z,19.90
2018-03-01T14:49:36.874Z,21.08
2018-03-01T14:52:08.912Z,22.92
2018-03-01T14:54:40.126Z,20.27
2018-03-01T14:57:12.085Z,23.62
2018-03-01T14:59:44.019Z,20.50
2018-03-01T15:02:15.444Z,23.25
2018-03-01T15:04:47.278Z,27.77
2018-03-01T15:07:19.188Z,19.67
2018-03-01T15:09:50.440Z,20.42
2018-03-01T15:12:21.705Z,20.00
2018-03-01T15:14:53.056Z,26.92
2018-03-01T15:17:25.076Z,19.58
2018-03-01T15:19:56.335Z,22.05
2018-03-01T15:22:28.297Z,25.05
2018-03-01T15:25:00.607Z,19.05
2018-03-01T15:27:31.915Z,21.87
2018-03-01T15:30:03.137Z,19.40
2018-03-01T15:32:34.417Z,19.98
2018-03-01T15:35:06.382Z,20.02
2018-03-01T15:37:38.413Z,23.23
2018-03-01T15:40:09.655Z,20.05
2018-03-01T15:42:40.864Z,23.12
2018-03-01T15:45:12.991Z,21.55
2018-03-01T15:47:45.031Z,19.62
2018-03-01T15:50:16.321Z,18.08
2018-03-01T15:52:47.554Z,23.23
2018-03-01T15:55:18.790Z,23.02
2018-03-01T15:57:50.788Z,23.12
2018-03-01T16:00:22.115Z,21.27
2018-03-01T16:02:53.429Z,21.37
2018-03-01T16:05:25.386Z,20.08
2018-03-01T16:07:56.741Z,21.48
2018-03-01T16:10:27.990Z,20.20
2018-03-01T16:12:59.313Z,20.58
2018-03-01T16:15:30.560Z,20.60
2018-03-01T16:18:01.817Z,20.08
2018-03-01T16:20:33.029Z,21.60
2018-03-01T16:23:04.216Z,22.67
2018-03-01T16:25:36.286Z,23.38
2018-03-01T16:28:08.228Z,24.65
2018-03-01T16:30:39.540Z,23.23
2018-03-01T16:33:10.731Z,28.38
2018-03-01T16:35:42.889Z,27.37
2018-03-01T16:38:14.227Z,21.60
2018-03-01T16:40:45.420Z,22.60
2018-03-01T16:43:16.641Z,22.92
2018-03-01T16:45:48.825Z,30.62
2018-03-01T16:48:20.047Z,28.00
2018-03-01T16:50:51.625Z,27.70
2018-03-01T16:53:22.849Z,31.70
2018-03-01T16:55:54.815Z,29.10
2018-03-01T16:58:26.044Z,30.55
2018-03-01T17:00:57.289Z,26.85
2018-03-01T17:03:28.612Z,30.42
2018-03-01T17:05:59.934Z,23.92
2018-03-01T17:08:31.255Z,20.50
2018-03-01T17:11:02.501Z,27.85
2018-03-01T17:13:33.733Z,28.20
2018-03-01T17:16:04.973Z,24.70
2018-03-01T17:18:36.284Z,22.92
2018-03-01T17:21:07.528Z,25.55
2018-03-01T17:23:38.783Z,27.87
2018-03-01T17:26:10.381Z,22.65
2018-03-01T17:28:41.579Z,24.17
2018-03-01T17:31:12.821Z,27.08
2018-03-01T17:33:44.072Z,27.75
2018-03-01T17:36:15.311Z,26.52
2018-03-01T17:38:46.499Z,32.90
2018-03-01T17:41:17.834Z,24.52
2018-03-01T17:43:49.767Z,23.75
2018-03-01T17:46:21.113Z,23.77
2018-03-01T17:48:52.331Z,27.13
2018-03-01T17:51:23.751Z,28.40
2018-03-01T17:53:54.957Z,28.30
2018-03-01T17:56:26.242Z,29.52
2018-03-01T17:58:57.480Z,26.98
2018-03-01T18:01:28.713Z,26.52
2018-03-01T18:03:59.943Z,25.10
2018-03-01T18:06:31.976Z,26.98
2018-03-01T18:09:03.491Z,26.62
2018-03-01T18:11:34.699Z,24.63
2018-03-01T18:14:06.014Z,25.20
2018-03-01T18:16:37.223Z,31.00
2018-03-01T18:19:08.598Z,27.95
2018-03-01T18:21:39.839Z,25.67
2018-03-01T18:24:11.108Z,27.02
2018-03-01T18:26:43.160Z,30.90
2018-03-01T18:29:14.404Z,26.75
2018-03-01T18:31:45.631Z,25.20
2018-03-01T18:34:16.903Z,35.13
2018-03-01T18:36:48.121Z,28.50
2018-03-01T18:39:19.352Z,32.03
2018-03-01T18:41:50.570Z,31.02
2018-03-01T18:44:22.548Z,27.20
2018-03-01T18:46:53.818Z,25.88
2018-03-01T18:49:25.086Z,30.58
2018-03-01T18:51:56.281Z,30.23
2018-03-01T18:54:28.244Z,32.33
2018-03-01T18:56:59.719Z,31.83
2018-03-01T18:59:30.923Z,23.58
2018-03-01T19:02:02.862Z,31.65
2018-03-01T19:04:34.084Z,32.40
2018-03-01T19:07:05.424Z,29.87
2018-03-01T19:09:36.655Z,28.50
2018-03-01T19:12:07.910Z,30.23
2018-03-01T19:14:39.130Z,27.20
2018-03-01T19:17:10.388Z,32.85
2018-03-01T19:19:41.580Z,35.63
2018-03-01T19:22:13.539Z,30.95
2018-03-01T19:24:45.459Z,27.65
2018-03-01T19:27:16.993Z,29.65
2018-03-01T19:29:48.172Z,25.27
2018-03-01T19:32:19.419Z,31.20
2018-03-01T19:34:50.633Z,28.92
2018-03-01T19:37:22.171Z,30.35
2018-03-01T19:39:53.420Z,31.08
2018-03-01T19:42:24.703Z,29.25
2018-03-01T19:44:55.907Z,29.92
2018-03-01T19:47:27.210Z,26.17
2018-03-01T19:49:59.640Z,33.85
2018-03-01T19:52:30.878Z,33.00
2018-03-01T19:55:02.092Z,29.33
2018-03-01T19:57:33.577Z,32.28
2018-03-01T20:00:04.810Z,28.75
2018-03-01T20:02:36.028Z,30.02
2018-03-01T20:05:07.220Z,32.58
2018-03-01T20:07:38.448Z,25.80
2018-03-01T20:10:09.630Z,29.23
2018-03-01T20:12:41.141Z,30.02
2018-03-01T20:15:12.316Z,30.40
2018-03-01T20:17:43.545Z,30.55
2018-03-01T20:20:14.729Z,34.63
2018-03-01T20:22:45.965Z,32.63
2018-03-01T20:25:17.884Z,30.27
2018-03-01T20:27:49.594Z,36.08
2018-03-01T20:30:21.086Z,30.60
2018-03-01T20:32:52.682Z,33.72
2018-03-01T20:35:23.960Z,32.35
2018-03-01T20:37:55.174Z,28.73
2018-03-01T20:40:26.785Z,30.90
2018-03-01T20:42:58.207Z,32.90
2018-03-01T20:45:29.427Z,31.58
2018-03-01T20:48:00.724Z,31.27
2018-03-01T20:50:32.035Z,37.40
2018-03-01T20:53:03.392Z,31.12
2018-03-01T20:55:34.590Z,39.45
2018-03-01T20:58:06.084Z,29.08
2018-03-01T21:00:37.338Z,34.95
2018-03-01T21:03:08.559Z,42.58
2018-03-01T21:05:39.851Z,34.95
2018-03-01T21:08:11.141Z,39.70
2018-03-01T21:10:43.280Z,34.20
2018-03-01T21:13:14.551Z,27.67
2018-03-01T21:15:45.774Z,33.92
2018-03-01T21:18:17.060Z,30.45
2018-03-01T21:20:48.287Z,36.60
2018-03-01T21:23:20.232Z,38.97
2018-03-01T21:25:51.415Z,35.13
2018-03-01T21:28:22.696Z,35.03
2018-03-01T21:30:54.220Z,36.72
2018-03-01T21:33:25.411Z,38.55
2018-03-01T21:35:56.648Z,32.08
2018-03-01T21:38:27.884Z,41.95
2018-03-01T21:40:59.091Z,30.37
2018-03-01T21:43:30.321Z,34.65
2018-03-01T21:46:01.522Z,33.95
2018-03-01T21:48:32.837Z,30.10
2018-03-01T21:51:04.013Z,37.10
2018-03-01T21:53:35.250Z,39.38
2018-03-01T21:56:06.448Z,39.78
2018-03-01T21:58:37.706Z,29.33
2018-03-01T22:01:09.009Z,33.38
2018-03-01T22:03:40.981Z,32.50
2018-03-01T22:06:12.200Z,44.67
2018-03-01T22:08:43.517Z,35.78
2018-03-01T22:11:14.708Z,40.72
2018-03-01T22:13:46.692Z,41.40
2018-03-01T22:16:17.935Z,35.40
2018-03-01T22:18:49.151Z,45.60
2018-03-01T22:21:21.060Z,32.30
2018-03-01T22:23:52.303Z,36.90
2018-03-01T22:26:23.502Z,39.75
2018-03-01T22:28:55.941Z,40.35
2018-03-01T22:31:27.143Z,36.05
2018-03-01T22:33:58.352Z,34.95
2018-03-01T22:36:30.451Z,36.90
2018-03-01T22:39:01.803Z,34.05
2018-03-01T22:41:33.788Z,37.40
2018-03-01T22:44:04.960Z,31.92
2018-03-01T22:46:37.306Z,36.22
2018-03-01T22:49:08.531Z,38.17
2018-03-01T22:51:39.740Z,34.78
2018-03-01T22:54:11.705Z,29.92
2018-03-01T22:56:43.715Z,37.75
2018-03-01T22:59:15.043Z,32.63
2018-03-01T23:01:46.490Z,32.70
2018-03-01T23:04:17.646Z,44.40
2018-03-01T23:06:49.187Z,38.65
2018-03-01T23:09:20.428Z,32.78
2018-03-01T23:11:51.611Z,34.53
2018-03-01T23:14:22.833Z,32.33
2018-03-01T23:16:54.051Z,39.15
2018-03-01T23:19:25.242Z,36.40
2018-03-01T23:21:56.464Z,36.08
2018-03-01T23:24:27.643Z,38.92
2018-03-01T23:26:58.876Z,35.88
2018-03-01T23:29:30.132Z,35.92
2018-03-01T23:32:01.368Z,37.45
2018-03-01T23:34:32.596Z,30.62
2018-03-01T23:37:03.780Z,32.85
2018-03-01T23:39:35.021Z,39.03
2018-03-01T23:42:07.015Z,34.58
2018-03-01T23:44:38.219Z,37.58
2018-03-01T23:47:09.426Z,30.62
2018-03-01T23:49:40.679Z,33.88
2018-03-01T23:52:11.887Z,38.63
2018-03-01T23:54:43.107Z,35.75
2018-03-01T23:57:14.333Z,31.80
2018-03-01T23:59:46.283Z,36.85
